createdAt,value
2022-08-10T00:00:28.035Z,17.37
2022-08-10T00:01:34.544Z,17.32
2022-08-10T00:02:37.147Z,17.40
2022-08-10T00:03:43.351Z,17.30
2022-08-10T00:04:45.516Z,17.26
2022-08-10T00:05:52.836Z,17.26
2022-08-10T00:06:56.028Z,17.26
2022-08-10T00:07:58.262Z,17.20
2022-08-10T00:09:00.531Z,17.19
2022-08-10T00:10:03.728Z,17.19
2022-08-10T00:11:15.389Z,17.22
2022-08-10T00:12:20.079Z,17.23
2022-08-10T00:13:24.244Z,17.22
2022-08-10T00:14:26.766Z,17.24
2022-08-10T00:15:52.283Z,17.22
2022-08-10T00:16:53.204Z,17.24
2022-08-10T00:17:58.023Z,17.23
2022-08-10T00:19:00.207Z,17.17
2022-08-10T00:20:08.507Z,17.19
2022-08-10T00:21:11.242Z,17.24
2022-08-10T00:22:16.905Z,17.24
2022-08-10T00:23:26.896Z,17.22
2022-08-10T00:24:33.052Z,17.30
2022-08-10T00:25:35.067Z,17.30
2022-08-10T00:28:01.227Z,17.31
2022-08-10T00:28:04.056Z,17.31
2022-08-10T00:29:13.107Z,17.34
2022-08-10T00:30:15.235Z,17.35
2022-08-10T00:31:20.275Z,17.38
2022-08-10T00:32:22.954Z,17.33
2022-08-10T00:33:25.419Z,17.35
2022-08-10T00:34:32.331Z,17.36
2022-08-10T00:35:35.905Z,17.35
2022-08-10T00:36:38.655Z,17.35
2022-08-10T00:37:40.820Z,17.31
2022-08-10T00:38:43.026Z,17.31
2022-08-10T00:39:48.895Z,17.26
2022-08-10T00:40:51.120Z,17.25
2022-08-10T00:42:01.975Z,17.31
2022-08-10T00:43:23.396Z,17.29
2022-08-10T00:44:28.819Z,17.25
2022-08-10T00:45:31.196Z,17.26
2022-08-10T00:46:33.781Z,17.20
2022-08-10T00:47:39.852Z,17.24
2022-08-10T00:48:42.387Z,17.25
2022-08-10T00:49:44.758Z,17.33
2022-08-10T00:50:57.347Z,17.24
2022-08-10T00:52:06.123Z,17.29
2022-08-10T00:53:08.705Z,17.28
2022-08-10T00:54:23.899Z,17.30
2022-08-10T00:55:28.744Z,17.28
2022-08-10T00:57:14.669Z,17.32
2022-08-10T00:57:57.050Z,17.32
2022-08-10T00:58:59.232Z,17.29
2022-08-10T01:00:09.662Z,17.28
2022-08-10T01:02:08.498Z,17.31
2022-08-10T01:02:34.789Z,17.41
2022-08-10T01:04:39.652Z,17.41
2022-08-10T01:05:08.835Z,17.44
2022-08-10T01:06:29.666Z,17.46
2022-08-10T01:07:34.470Z,17.45
2022-08-10T01:08:53.033Z,17.50
2022-08-10T01:10:13.280Z,17.51
2022-08-10T01:12:28.590Z,17.47
2022-08-10T01:12:57.586Z,17.47
2022-08-10T01:14:06.858Z,17.45
2022-08-10T01:15:29.073Z,17.46
2022-08-10T01:16:53.666Z,17.47
2022-08-10T01:18:17.472Z,17.40
2022-08-10T01:19:41.552Z,17.39
2022-08-10T01:20:57.664Z,17.34
2022-08-10T01:22:24.838Z,17.35
2022-08-10T01:23:53.606Z,17.34
2022-08-10T01:25:20.232Z,17.32
2022-08-10T01:26:43.069Z,17.32
2022-08-10T01:28:00.530Z,17.30
2022-08-10T01:29:34.067Z,17.22
2022-08-10T01:30:38.597Z,17.27
2022-08-10T01:31:45.634Z,17.29
2022-08-10T01:33:31.741Z,17.35
2022-08-10T01:34:53.736Z,17.33
2022-08-10T01:36:04.058Z,17.24
2022-08-10T01:37:12.195Z,17.27
2022-08-10T01:38:18.389Z,17.28
2022-08-10T01:39:31.351Z,17.32
2022-08-10T01:40:39.579Z,17.35
2022-08-10T01:41:46.418Z,17.27
2022-08-10T01:42:55.248Z,17.28
2022-08-10T01:44:13.399Z,17.34
2022-08-10T01:45:20.919Z,17.41
2022-08-10T01:46:28.221Z,17.44
2022-08-10T01:48:16.613Z,17.44
2022-08-10T01:49:22.531Z,17.47
2022-08-10T01:50:53.268Z,17.42
2022-08-10T01:52:06.991Z,17.54
2022-08-10T01:53:16.196Z,17.51
2022-08-10T01:54:24.614Z,17.47
2022-08-10T01:55:29.311Z,17.48
2022-08-10T01:56:35.153Z,17.47
2022-08-10T01:57:40.405Z,17.51
2022-08-10T01:58:46.667Z,17.61
2022-08-10T01:59:58.596Z,17.73
2022-08-10T02:01:11.133Z,17.72
2022-08-10T02:02:21.698Z,17.68
2022-08-10T02:03:27.142Z,17.64
2022-08-10T02:04:31.687Z,17.65
2022-08-10T02:05:37.484Z,17.66
2022-08-10T02:06:44.512Z,17.59
2022-08-10T02:07:49.493Z,17.56
2022-08-10T02:08:57.101Z,17.62
2022-08-10T02:10:13.567Z,17.69
2022-08-10T02:11:19.420Z,17.76
2022-08-10T02:12:43.693Z,17.72
2022-08-10T02:13:48.339Z,17.55
2022-08-10T02:15:02.354Z,17.56
2022-08-10T02:16:07.116Z,17.58
2022-08-10T02:17:57.081Z,17.62
2022-08-10T02:18:40.641Z,17.69
2022-08-10T02:19:46.988Z,17.70
2022-08-10T02:20:51.676Z,17.57
2022-08-10T02:22:35.296Z,17.66
2022-08-10T02:23:27.960Z,17.69
2022-08-10T02:24:30.670Z,17.77
2022-08-10T02:25:42.360Z,17.68
2022-08-10T02:26:47.033Z,17.82
2022-08-10T02:27:51.423Z,17.70
2022-08-10T02:28:54.910Z,17.72
2022-08-10T02:29:59.274Z,17.77
2022-08-10T02:31:12.005Z,17.87
2022-08-10T02:32:20.130Z,18.06
2022-08-10T02:33:56.230Z,18.08
2022-08-10T02:35:01.485Z,17.91
2022-08-10T02:36:08.912Z,17.96
2022-08-10T02:37:13.839Z,17.81
2022-08-10T02:38:58.526Z,17.89
2022-08-10T02:39:50.884Z,17.82
2022-08-10T02:45:01.109Z,17.69
2022-08-10T02:45:19.339Z,17.82
2022-08-10T02:45:29.565Z,17.81
2022-08-10T02:46:09.898Z,17.82
2022-08-10T02:47:51.567Z,17.84
2022-08-10T02:49:03.549Z,17.89
2022-08-10T02:50:08.912Z,17.88
2022-08-10T02:52:06.639Z,17.89
2022-08-10T02:52:56.617Z,17.92
2022-08-10T02:54:08.666Z,17.89
2022-08-10T02:55:32.375Z,17.89
2022-08-10T02:56:49.758Z,17.93
2022-08-10T02:58:16.615Z,17.96
2022-08-10T02:59:39.645Z,18.20
2022-08-10T03:00:46.795Z,18.59
2022-08-10T03:01:54.567Z,18.45
2022-08-10T03:03:01.057Z,18.30
2022-08-10T03:04:11.975Z,18.30
2022-08-10T03:05:19.526Z,18.16
2022-08-10T03:06:25.756Z,18.28
2022-08-10T03:07:43.376Z,18.32
2022-08-10T03:08:50.003Z,18.35
2022-08-10T03:09:53.587Z,18.61
2022-08-10T03:10:58.710Z,18.91
2022-08-10T03:12:36.039Z,19.22
2022-08-10T03:13:28.800Z,19.24
2022-08-10T03:14:32.642Z,19.06
2022-08-10T03:15:37.978Z,18.98
2022-08-10T03:16:42.355Z,18.99
2022-08-10T03:17:57.206Z,19.10
2022-08-10T03:19:04.915Z,18.72
2022-08-10T03:20:34.627Z,18.69
2022-08-10T03:21:31.240Z,18.70
2022-08-10T03:22:35.173Z,18.82
2022-08-10T03:23:40.757Z,18.79
2022-08-10T03:24:45.150Z,18.76
2022-08-10T03:25:54.403Z,18.72
2022-08-10T03:26:57.966Z,18.75
2022-08-10T03:28:01.313Z,18.66
2022-08-10T03:29:05.085Z,18.61
2022-08-10T03:30:25.756Z,18.42
2022-08-10T03:31:31.587Z,18.42
2022-08-10T03:32:35.060Z,18.41
2022-08-10T03:33:39.692Z,18.42
2022-08-10T03:34:42.719Z,18.47
2022-08-10T03:36:40.479Z,18.35
2022-08-10T03:37:07.611Z,18.31
2022-08-10T03:38:12.652Z,18.30
2022-08-10T03:39:15.308Z,18.40
2022-08-10T03:40:17.610Z,18.32
2022-08-10T03:41:27.236Z,18.21
2022-08-10T03:42:34.923Z,18.19
2022-08-10T03:43:41.268Z,18.28
2022-08-10T03:44:49.867Z,18.23
2022-08-10T03:46:00.155Z,18.21
2022-08-10T03:47:16.194Z,18.22
2022-08-10T03:48:21.046Z,18.36
2022-08-10T03:49:27.223Z,18.24
2022-08-10T03:50:50.968Z,18.23
2022-08-10T03:51:56.472Z,18.23
2022-08-10T03:53:00.478Z,18.44
2022-08-10T03:54:07.269Z,18.37
2022-08-10T03:55:11.526Z,18.55
2022-08-10T03:56:36.252Z,18.49
2022-08-10T03:57:49.375Z,18.69
2022-08-10T03:58:51.997Z,19.06
2022-08-10T03:59:54.132Z,18.99
2022-08-10T04:00:57.688Z,19.04
2022-08-10T04:02:44.010Z,19.12
2022-08-10T04:03:23.373Z,19.70
2022-08-10T04:04:31.345Z,19.55
2022-08-10T04:05:38.060Z,19.51
2022-08-10T04:06:40.963Z,19.35
2022-08-10T04:07:44.622Z,19.19
2022-08-10T04:08:48.044Z,19.30
2022-08-10T04:09:55.150Z,19.30
2022-08-10T04:10:58.645Z,19.30
2022-08-10T04:12:01.161Z,19.59
2022-08-10T04:13:03.575Z,19.95
2022-08-10T04:14:06.512Z,21.17
2022-08-10T04:15:09.085Z,21.73
2022-08-10T04:16:11.192Z,21.55
2022-08-10T04:17:18.317Z,21.05
2022-08-10T04:18:40.155Z,20.53
2022-08-10T04:19:50.252Z,20.46
2022-08-10T04:21:05.030Z,21.09
2022-08-10T04:22:21.170Z,21.01
2022-08-10T04:23:30.972Z,21.24
2022-08-10T04:24:36.737Z,21.03
2022-08-10T04:25:40.210Z,20.77
2022-08-10T04:26:42.684Z,20.52
2022-08-10T04:27:48.490Z,20.17
2022-08-10T04:28:50.718Z,20.64
2022-08-10T04:29:55.617Z,20.32
2022-08-10T04:30:59.121Z,21.22
2022-08-10T04:32:03.671Z,22.27
2022-08-10T04:33:08.285Z,22.46
2022-08-10T04:34:11.488Z,23.28
2022-08-10T04:35:16.905Z,23.48
2022-08-10T04:36:22.253Z,23.78
2022-08-10T04:37:25.929Z,24.59
2022-08-10T04:38:32.173Z,24.59
2022-08-10T04:39:34.394Z,24.99
2022-08-10T04:40:37.971Z,24.93
2022-08-10T04:41:46.193Z,24.40
2022-08-10T04:42:50.263Z,22.88
2022-08-10T04:43:52.357Z,22.88
2022-08-10T04:44:55.433Z,23.02
2022-08-10T04:45:57.835Z,23.86
2022-08-10T04:47:00.956Z,24.12
2022-08-10T04:48:03.633Z,23.67
2022-08-10T04:49:55.191Z,22.89
2022-08-10T04:50:31.032Z,21.99
2022-08-10T04:51:33.058Z,21.74
2022-08-10T04:52:37.438Z,21.48
2022-08-10T04:54:05.905Z,21.39
2022-08-10T04:55:04.424Z,21.27
2022-08-10T04:56:08.869Z,21.24
2022-08-10T04:57:10.983Z,21.50
2022-08-10T04:58:14.558Z,21.92
2022-08-10T04:59:20.288Z,22.30
2022-08-10T05:00:22.435Z,22.51
2022-08-10T05:01:26.715Z,21.98
2022-08-10T05:02:32.180Z,21.97
2022-08-10T05:03:34.480Z,22.98
2022-08-10T05:04:56.963Z,24.23
2022-08-10T05:05:58.999Z,23.76
2022-08-10T05:07:03.747Z,24.29
2022-08-10T05:08:05.988Z,24.59
2022-08-10T05:09:08.612Z,24.29
2022-08-10T05:10:14.992Z,24.14
2022-08-10T05:11:24.124Z,23.86
2022-08-10T05:12:26.745Z,23.89
2022-08-10T05:13:29.771Z,23.43
2022-08-10T05:14:32.166Z,22.97
2022-08-10T05:15:34.639Z,22.68
2022-08-10T05:16:36.688Z,22.67
2022-08-10T05:17:41.298Z,22.23
2022-08-10T05:19:03.523Z,21.91
2022-08-10T05:20:09.979Z,21.84
2022-08-10T05:22:01.401Z,21.46
2022-08-10T05:22:37.731Z,21.29
2022-08-10T05:23:40.193Z,21.11
2022-08-10T05:24:43.064Z,20.95
2022-08-10T05:25:45.457Z,20.93
2022-08-10T05:27:00.343Z,20.81
2022-08-10T05:28:10.212Z,21.02
2022-08-10T05:29:17.859Z,21.10
2022-08-10T05:30:23.146Z,21.01
2022-08-10T05:33:01.625Z,21.05
2022-08-10T05:34:20.667Z,21.34
2022-08-10T05:35:24.051Z,21.59
2022-08-10T05:36:27.133Z,21.39
2022-08-10T05:38:09.420Z,21.43
2022-08-10T05:38:54.478Z,21.29
2022-08-10T05:39:57.429Z,21.27
2022-08-10T05:41:00.335Z,21.12
2022-08-10T05:42:03.347Z,21.08
2022-08-10T05:43:06.131Z,20.97
2022-08-10T05:44:09.210Z,20.97
2022-08-10T05:46:16.705Z,20.63
2022-08-10T05:47:00.307Z,20.98
2022-08-10T05:48:56.086Z,21.08
2022-08-10T05:49:25.971Z,20.70
2022-08-10T05:50:31.353Z,20.91
2022-08-10T05:51:33.729Z,20.96
2022-08-10T05:52:36.159Z,21.16
2022-08-10T05:54:01.258Z,21.33
2022-08-10T05:55:03.022Z,21.75
2022-08-10T05:56:07.282Z,21.85
2022-08-10T05:57:10.520Z,22.36
2022-08-10T05:58:14.063Z,22.14
2022-08-10T06:00:33.082Z,22.65
2022-08-10T06:00:48.410Z,23.05
2022-08-10T06:02:34.042Z,23.02
2022-08-10T06:03:18.833Z,23.26
2022-08-10T06:04:31.303Z,24.09
2022-08-10T06:05:37.292Z,23.80
2022-08-10T06:06:41.113Z,23.06
2022-08-10T06:07:48.885Z,23.11
2022-08-10T06:08:53.672Z,23.49
2022-08-10T06:10:00.289Z,23.97
2022-08-10T06:12:23.614Z,24.06
2022-08-10T06:12:30.909Z,23.68
2022-08-10T06:14:00.072Z,23.74
2022-08-10T06:15:21.693Z,24.04
2022-08-10T06:16:25.277Z,24.33
2022-08-10T06:17:30.728Z,24.77
2022-08-10T06:18:33.653Z,24.19
2022-08-10T06:19:36.241Z,24.93
2022-08-10T06:20:38.810Z,24.94
2022-08-10T06:21:41.287Z,25.73
2022-08-10T06:23:04.323Z,25.18
2022-08-10T06:24:11.682Z,24.81
2022-08-10T06:26:08.365Z,25.25
2022-08-10T06:26:38.068Z,25.21
2022-08-10T06:27:40.696Z,25.83
2022-08-10T06:28:58.227Z,25.49
2022-08-10T06:30:20.127Z,26.36
2022-08-10T06:31:26.708Z,27.42
2022-08-10T06:32:30.108Z,27.47
2022-08-10T06:33:35.475Z,27.64
2022-08-10T06:34:45.676Z,25.90
2022-08-10T06:35:52.320Z,26.13
2022-08-10T06:36:57.690Z,27.15
2022-08-10T06:38:05.087Z,27.84
2022-08-10T06:39:31.801Z,28.93
2022-08-10T06:40:38.326Z,27.87
2022-08-10T06:42:01.434Z,28.59
2022-08-10T06:43:19.027Z,28.95
2022-08-10T06:44:33.865Z,29.33
2022-08-10T06:45:43.197Z,31.24
2022-08-10T06:46:49.939Z,31.61
2022-08-10T06:47:55.908Z,29.62
2022-08-10T06:49:02.093Z,28.78
2022-08-10T06:50:12.906Z,28.95
2022-08-10T06:51:21.839Z,29.35
2022-08-10T06:52:24.582Z,28.88
2022-08-10T06:53:52.836Z,27.18
2022-08-10T06:54:59.294Z,27.49
2022-08-10T06:56:07.715Z,27.11
2022-08-10T06:57:18.724Z,28.50
2022-08-10T06:58:23.765Z,29.10
2022-08-10T06:59:44.771Z,28.07
2022-08-10T07:00:47.733Z,27.81
2022-08-10T07:02:01.308Z,27.39
2022-08-10T07:03:11.636Z,27.96
2022-08-10T07:04:38.823Z,29.40
2022-08-10T07:05:51.289Z,28.92
2022-08-10T07:06:55.373Z,28.70
2022-08-10T07:08:01.180Z,30.25
2022-08-10T07:09:05.174Z,29.95
2022-08-10T07:10:09.697Z,30.79
2022-08-10T07:11:13.379Z,30.75
2022-08-10T07:12:17.799Z,30.14
2022-08-10T07:14:16.246Z,29.93
2022-08-10T07:14:46.683Z,28.49
2022-08-10T07:15:57.278Z,27.58
2022-08-10T07:17:04.302Z,28.09
2022-08-10T07:18:07.871Z,27.98
2022-08-10T07:19:11.102Z,27.31
2022-08-10T07:20:18.965Z,27.53
2022-08-10T07:21:22.897Z,26.75
2022-08-10T07:23:01.255Z,26.92
2022-08-10T07:23:58.665Z,28.51
2022-08-10T07:25:05.913Z,29.14
2022-08-10T07:26:10.370Z,27.67
2022-08-10T07:27:13.660Z,26.99
2022-08-10T07:28:18.375Z,27.65
2022-08-10T07:29:26.780Z,27.46
2022-08-10T07:30:46.139Z,28.56
2022-08-10T07:31:57.119Z,27.64
2022-08-10T07:33:02.878Z,27.66
2022-08-10T07:34:08.794Z,27.33
2022-08-10T07:35:17.635Z,25.95
2022-08-10T07:36:23.380Z,26.57
2022-08-10T07:37:30.244Z,26.37
2022-08-10T07:38:35.378Z,25.39
2022-08-10T07:40:02.799Z,24.74
2022-08-10T07:41:06.682Z,24.93
2022-08-10T07:42:11.667Z,25.28
2022-08-10T07:43:18.727Z,25.52
2022-08-10T07:44:26.775Z,25.89
2022-08-10T07:45:32.075Z,25.34
2022-08-10T07:46:38.615Z,24.91
2022-08-10T07:47:53.116Z,24.46
2022-08-10T07:49:03.255Z,25.09
2022-08-10T07:50:24.706Z,25.27
2022-08-10T07:51:28.520Z,25.28
2022-08-10T07:52:34.699Z,25.19
2022-08-10T07:53:43.338Z,24.88
2022-08-10T07:54:50.442Z,24.78
2022-08-10T07:56:04.052Z,24.81
2022-08-10T07:57:31.926Z,24.19
2022-08-10T07:58:46.106Z,24.67
2022-08-10T08:00:01.185Z,24.87
2022-08-10T08:01:16.705Z,25.62
2022-08-10T08:02:39.999Z,26.21
2022-08-10T08:03:44.653Z,26.23
2022-08-10T08:05:10.071Z,26.16
2022-08-10T08:06:13.573Z,26.53
2022-08-10T08:07:21.258Z,26.52
2022-08-10T08:08:25.707Z,26.58
2022-08-10T08:09:32.705Z,26.51
2022-08-10T08:10:36.294Z,26.30
2022-08-10T08:11:44.840Z,25.94
2022-08-10T08:12:51.756Z,26.10
2022-08-10T08:13:55.614Z,26.44
2022-08-10T08:15:02.754Z,27.07
2022-08-10T08:16:25.513Z,28.21
2022-08-10T08:17:36.477Z,27.48
2022-08-10T08:18:42.580Z,27.50
2022-08-10T08:20:02.720Z,27.23
2022-08-10T08:21:13.659Z,27.29
2022-08-10T08:24:09.317Z,26.37
2022-08-10T08:24:31.530Z,26.43
2022-08-10T08:25:17.497Z,26.43
2022-08-10T08:26:23.006Z,26.72
2022-08-10T08:27:27.583Z,26.11
2022-08-10T08:28:34.523Z,25.44
2022-08-10T08:29:41.777Z,25.71
2022-08-10T08:30:48.904Z,25.27
2022-08-10T08:32:01.335Z,25.58
2022-08-10T08:33:05.104Z,25.30
2022-08-10T08:34:08.939Z,25.13
2022-08-10T08:35:15.580Z,24.95
2022-08-10T08:36:20.015Z,25.04
2022-08-10T08:38:29.733Z,24.68
2022-08-10T08:38:47.813Z,24.69
2022-08-10T08:39:50.062Z,24.78
2022-08-10T08:41:11.839Z,25.05
2022-08-10T08:42:28.128Z,24.63
2022-08-10T08:43:54.993Z,24.64
2022-08-10T08:45:23.433Z,24.85
2022-08-10T08:46:59.249Z,25.02
2022-08-10T08:48:19.936Z,24.86
2022-08-10T08:50:05.060Z,25.24
2022-08-10T08:52:07.103Z,25.02
2022-08-10T08:54:02.122Z,25.95
2022-08-10T08:56:04.704Z,25.38
2022-08-10T08:57:50.294Z,25.81
2022-08-10T08:58:51.005Z,25.40
2022-08-10T09:00:06.224Z,25.38
2022-08-10T09:01:40.363Z,25.68
2022-08-10T09:03:03.443Z,25.61
2022-08-10T09:04:44.848Z,26.17
2022-08-10T09:06:04.620Z,26.22
2022-08-10T09:07:39.319Z,26.08
2022-08-10T09:09:35.510Z,25.09
2022-08-10T09:10:40.141Z,25.41
2022-08-10T09:13:33.779Z,25.76
2022-08-10T09:14:50.231Z,26.34
2022-08-10T09:16:10.967Z,26.12
2022-08-10T09:17:38.192Z,25.49
2022-08-10T09:19:10.720Z,25.40
2022-08-10T09:20:39.620Z,25.58
2022-08-10T09:21:58.791Z,25.78
2022-08-10T09:24:04.517Z,24.88
2022-08-10T09:25:20.739Z,24.95
2022-08-10T09:26:37.780Z,25.17
2022-08-10T09:27:49.333Z,24.92
2022-08-10T09:29:11.522Z,24.60
2022-08-10T09:30:33.778Z,24.78
2022-08-10T09:31:55.528Z,25.23
2022-08-10T09:36:23.508Z,25.16
2022-08-10T09:36:23.686Z,24.66
2022-08-10T09:36:44.392Z,25.18
2022-08-10T09:38:19.767Z,24.72
2022-08-10T09:40:56.505Z,24.51
2022-08-10T09:41:39.813Z,24.57
2022-08-10T09:43:23.537Z,24.71
2022-08-10T09:44:33.511Z,24.57
2022-08-10T09:45:59.101Z,24.55
2022-08-10T09:47:01.331Z,24.32
2022-08-10T09:48:32.862Z,24.28
2022-08-10T09:50:04.478Z,24.36
2022-08-10T09:53:05.671Z,24.41
2022-08-10T09:54:21.485Z,24.40
2022-08-10T09:56:17.027Z,24.32
2022-08-10T09:57:55.100Z,24.22
2022-08-10T09:59:26.613Z,24.68
2022-08-10T10:00:52.918Z,24.66
2022-08-10T10:02:27.623Z,24.49
2022-08-10T10:03:35.962Z,24.86
2022-08-10T10:05:02.455Z,24.89
2022-08-10T10:06:11.122Z,24.58
2022-08-10T10:07:28.775Z,24.40
2022-08-10T10:08:42.934Z,24.67
2022-08-10T10:10:00.188Z,24.47
2022-08-10T10:11:24.125Z,24.19
2022-08-10T10:12:36.247Z,24.19
2022-08-10T10:14:02.475Z,24.37
2022-08-10T10:15:24.153Z,24.49
2022-08-10T10:16:52.625Z,24.36
2022-08-10T10:18:04.208Z,24.71
2022-08-10T10:19:34.371Z,24.65
2022-08-10T10:21:03.297Z,24.12
2022-08-10T10:22:32.832Z,24.25
2022-08-10T10:24:19.800Z,24.50
2022-08-10T10:25:51.334Z,24.45
2022-08-10T10:27:36.768Z,24.39
2022-08-10T10:29:37.627Z,24.16
2022-08-10T10:30:39.406Z,24.20
2022-08-10T10:31:58.644Z,24.24
2022-08-10T10:33:13.203Z,24.23
2022-08-10T10:34:38.264Z,24.25
2022-08-10T10:35:55.658Z,24.23
2022-08-10T10:37:00.105Z,24.25
2022-08-10T10:38:04.771Z,24.47
2022-08-10T10:39:08.134Z,24.38
2022-08-10T10:40:14.731Z,24.60
2022-08-10T10:41:56.200Z,24.87
2022-08-10T10:43:15.833Z,24.94
2022-08-10T10:44:23.255Z,25.07
2022-08-10T10:45:49.929Z,25.11
2022-08-10T10:47:07.106Z,24.97
2022-08-10T10:48:24.110Z,25.12
2022-08-10T10:49:42.907Z,25.17
2022-08-10T10:51:11.280Z,25.10
2022-08-10T10:52:13.261Z,24.86
2022-08-10T10:53:49.871Z,25.07
2022-08-10T10:55:09.649Z,24.83
2022-08-10T10:56:21.258Z,25.15
2022-08-10T10:57:59.179Z,24.80
2022-08-10T10:59:54.895Z,24.92
2022-08-10T11:00:57.147Z,25.56
2022-08-10T11:02:36.752Z,25.40
2022-08-10T11:03:44.964Z,25.23
2022-08-10T11:05:02.649Z,25.44
2022-08-10T11:06:40.561Z,25.35
2022-08-10T11:07:53.492Z,25.38
2022-08-10T11:09:05.999Z,25.35
2022-08-10T11:10:32.911Z,25.39
2022-08-10T11:12:01.978Z,25.18
2022-08-10T11:14:26.652Z,25.47
2022-08-10T11:15:09.766Z,25.26
2022-08-10T11:16:35.839Z,25.40
2022-08-10T11:18:16.112Z,25.74
2022-08-10T11:20:02.386Z,25.64
2022-08-10T11:21:06.979Z,25.17
2022-08-10T11:22:20.482Z,25.05
2022-08-10T11:23:31.885Z,25.04
2022-08-10T11:24:49.561Z,25.16
2022-08-10T11:25:59.859Z,25.27
2022-08-10T11:27:22.169Z,25.12
2022-08-10T11:28:46.009Z,25.14
2022-08-10T11:30:06.706Z,25.03
2022-08-10T11:31:25.189Z,25.09
2022-08-10T11:32:43.350Z,25.02
2022-08-10T11:34:48.296Z,25.02
2022-08-10T11:35:45.202Z,24.83
2022-08-10T11:36:55.836Z,25.24
2022-08-10T11:38:31.398Z,25.14
2022-08-10T11:39:49.410Z,25.03
2022-08-10T11:42:10.244Z,25.33
2022-08-10T11:42:53.705Z,25.37
2022-08-10T11:44:19.249Z,25.18
2022-08-10T11:45:29.980Z,25.35
2022-08-10T11:46:34.941Z,25.34
2022-08-10T11:47:39.916Z,25.34
2022-08-10T11:48:57.052Z,25.32
2022-08-10T11:50:16.344Z,25.42
2022-08-10T11:51:25.349Z,25.29
2022-08-10T11:52:51.452Z,25.41
2022-08-10T11:54:13.350Z,25.17
2022-08-10T11:55:23.934Z,24.92
2022-08-10T11:56:33.669Z,24.93
2022-08-10T11:57:53.870Z,24.90
2022-08-10T11:59:17.478Z,24.87
2022-08-10T12:00:24.319Z,25.06
2022-08-10T12:01:32.950Z,25.23
2022-08-10T12:02:53.386Z,25.01
2022-08-10T12:03:56.565Z,25.32
2022-08-10T12:05:08.459Z,25.27
2022-08-10T12:06:14.233Z,25.14
2022-08-10T12:10:04.950Z,25.32
2022-08-10T12:10:05.509Z,25.51
2022-08-10T12:10:13.797Z,25.24
2022-08-10T12:11:24.540Z,25.16
2022-08-10T12:12:34.407Z,25.22
2022-08-10T12:14:04.612Z,25.43
2022-08-10T12:15:21.671Z,25.43
2022-08-10T12:16:28.676Z,25.68
2022-08-10T12:18:01.153Z,25.51
2022-08-10T12:19:08.993Z,25.41
2022-08-10T12:20:12.659Z,25.36
2022-08-10T12:21:27.535Z,25.59
2022-08-10T12:22:49.578Z,25.56
2022-08-10T12:24:03.107Z,25.55
2022-08-10T12:25:11.747Z,25.43
2022-08-10T12:26:37.878Z,25.43
2022-08-10T12:27:50.978Z,25.36
2022-08-10T12:29:12.178Z,25.28
2022-08-10T12:30:22.282Z,25.25
2022-08-10T12:31:54.759Z,25.26
2022-08-10T12:33:02.588Z,25.39
2022-08-10T12:34:30.624Z,25.14
2022-08-10T12:35:56.210Z,25.18
2022-08-10T12:37:17.824Z,25.27
2022-08-10T12:38:27.596Z,25.32
2022-08-10T12:39:37.730Z,25.25
2022-08-10T12:40:47.445Z,25.01
2022-08-10T12:42:10.991Z,25.21
2022-08-10T12:44:04.727Z,25.65
2022-08-10T12:45:05.829Z,25.75
2022-08-10T12:46:39.189Z,25.60
2022-08-10T12:48:04.381Z,25.59
2022-08-10T12:49:21.030Z,25.83
2022-08-10T12:50:33.990Z,25.76
2022-08-10T12:51:41.467Z,25.81
2022-08-10T12:53:06.989Z,25.67
2022-08-10T12:54:17.331Z,25.77
2022-08-10T12:55:37.622Z,25.60
2022-08-10T12:56:56.126Z,25.57
2022-08-10T12:58:00.172Z,25.65
2022-08-10T12:59:05.698Z,25.49
2022-08-10T13:00:09.918Z,25.52
2022-08-10T13:01:24.721Z,25.51
2022-08-10T13:02:30.972Z,25.55
2022-08-10T13:04:22.712Z,25.70
2022-08-10T13:05:02.662Z,25.53
2022-08-10T13:06:09.527Z,25.79
2022-08-10T13:08:24.677Z,25.97
2022-08-10T13:08:56.131Z,25.71
2022-08-10T13:10:09.995Z,25.37
2022-08-10T13:12:33.746Z,25.32
2022-08-10T13:12:44.332Z,25.54
2022-08-10T13:13:49.400Z,25.49
2022-08-10T13:15:43.168Z,25.69
2022-08-10T13:16:39.284Z,25.50
2022-08-10T13:17:42.706Z,25.61
2022-08-10T13:18:46.566Z,25.41
2022-08-10T13:19:55.056Z,25.50
2022-08-10T13:21:19.568Z,25.47
2022-08-10T13:22:25.839Z,25.70
2022-08-10T13:23:30.208Z,25.46
2022-08-10T13:24:35.950Z,25.35
2022-08-10T13:25:46.624Z,25.44
2022-08-10T13:27:24.792Z,25.29
2022-08-10T13:28:36.431Z,25.05
2022-08-10T13:29:50.601Z,25.25
2022-08-10T13:30:54.819Z,25.11
2022-08-10T13:32:10.001Z,25.32
2022-08-10T13:33:17.323Z,25.09
2022-08-10T13:34:46.455Z,25.20
2022-08-10T13:35:49.743Z,25.23
2022-08-10T13:37:09.316Z,25.12
2022-08-10T13:38:17.216Z,25.11
2022-08-10T13:39:24.620Z,25.07
2022-08-10T13:40:27.886Z,24.93
2022-08-10T13:41:36.020Z,24.97
2022-08-10T13:42:40.081Z,24.99
2022-08-10T13:43:54.882Z,25.02
2022-08-10T13:44:59.659Z,25.08
2022-08-10T13:46:02.871Z,25.02
2022-08-10T13:47:07.149Z,24.87
2022-08-10T13:48:18.799Z,24.81
2022-08-10T13:49:24.208Z,24.92
2022-08-10T13:50:35.705Z,24.98
2022-08-10T13:51:54.468Z,25.06
2022-08-10T13:53:01.565Z,24.95
2022-08-10T13:54:05.843Z,24.93
2022-08-10T13:55:17.282Z,24.97
2022-08-10T13:56:21.669Z,24.89
2022-08-10T13:57:27.792Z,24.84
2022-08-10T13:58:36.166Z,24.94
2022-08-10T14:00:33.947Z,24.99
2022-08-10T14:01:33.002Z,24.81
2022-08-10T14:02:40.927Z,24.78
2022-08-10T14:03:44.962Z,24.85
2022-08-10T14:04:48.106Z,24.84
2022-08-10T14:05:53.095Z,24.83
2022-08-10T14:06:59.626Z,24.67
2022-08-10T14:08:05.597Z,24.77
2022-08-10T14:09:13.352Z,24.80
2022-08-10T14:10:17.831Z,24.76
2022-08-10T14:11:44.423Z,24.61
2022-08-10T14:12:49.143Z,24.50
2022-08-10T14:13:56.905Z,24.49
2022-08-10T14:15:01.388Z,24.52
2022-08-10T14:16:11.008Z,24.51
2022-08-10T14:17:13.957Z,24.37
2022-08-10T14:18:23.247Z,24.33
2022-08-10T14:19:29.688Z,24.31
2022-08-10T14:20:34.796Z,24.33
2022-08-10T14:21:43.561Z,24.33
2022-08-10T14:22:45.924Z,24.31
2022-08-10T14:23:52.589Z,24.41
2022-08-10T14:25:06.782Z,24.35
2022-08-10T14:26:11.783Z,24.37
2022-08-10T14:27:21.479Z,24.38
2022-08-10T14:28:34.373Z,24.43
2022-08-10T14:29:48.834Z,24.37
2022-08-10T14:31:22.592Z,24.40
2022-08-10T14:32:30.274Z,24.49
2022-08-10T14:33:35.207Z,24.51
2022-08-10T14:36:19.683Z,24.52
2022-08-10T14:36:21.053Z,24.59
2022-08-10T14:37:40.409Z,24.45
2022-08-10T14:38:45.361Z,24.44
2022-08-10T14:40:04.899Z,24.30
2022-08-10T14:42:01.406Z,24.27
2022-08-10T14:43:05.627Z,24.19
2022-08-10T14:44:12.017Z,24.22
2022-08-10T14:45:37.577Z,24.25
2022-08-10T14:46:45.576Z,24.28
2022-08-10T14:47:55.260Z,24.36
2022-08-10T14:49:26.627Z,24.39
2022-08-10T14:50:33.707Z,24.37
2022-08-10T14:51:44.463Z,24.39
2022-08-10T14:52:48.684Z,24.35
2022-08-10T14:53:56.071Z,24.36
2022-08-10T14:55:05.849Z,24.34
2022-08-10T14:56:32.491Z,24.31
2022-08-10T14:58:19.423Z,24.32
2022-08-10T14:59:07.730Z,24.28
2022-08-10T15:00:28.092Z,24.23
2022-08-10T15:02:01.090Z,24.14
2022-08-10T15:03:16.064Z,24.08
2022-08-10T15:04:30.183Z,24.05
2022-08-10T15:05:39.778Z,24.05
2022-08-10T15:06:57.517Z,24.14
2022-08-10T15:08:00.287Z,24.11
2022-08-10T15:09:19.898Z,24.22
2022-08-10T15:10:24.359Z,24.23
2022-08-10T15:12:14.039Z,24.18
2022-08-10T15:12:58.822Z,24.16
2022-08-10T15:14:15.075Z,24.08
2022-08-10T15:15:28.788Z,24.04
2022-08-10T15:16:34.684Z,24.06
2022-08-10T15:17:42.578Z,24.05
2022-08-10T15:18:58.636Z,24.05
2022-08-10T15:20:15.716Z,23.98
2022-08-10T15:21:28.790Z,23.91
2022-08-10T15:23:30.820Z,23.90
2022-08-10T15:24:55.529Z,23.83
2022-08-10T15:26:10.851Z,23.77
2022-08-10T15:27:19.530Z,23.79
2022-08-10T15:28:22.969Z,23.84
2022-08-10T15:29:57.065Z,23.85
2022-08-10T15:31:03.251Z,23.95
2022-08-10T15:32:26.140Z,23.87
2022-08-10T15:34:09.078Z,23.90
2022-08-10T15:35:31.003Z,24.00
2022-08-10T15:37:02.396Z,23.99
2022-08-10T15:38:36.896Z,23.96
2022-08-10T15:40:20.993Z,23.83
2022-08-10T15:41:12.418Z,23.86
2022-08-10T15:42:20.642Z,23.80
2022-08-10T15:43:36.869Z,23.75
2022-08-10T15:44:50.361Z,23.81
2022-08-10T15:46:29.752Z,23.77
2022-08-10T15:47:45.086Z,23.75
2022-08-10T15:48:53.209Z,23.82
2022-08-10T15:50:03.864Z,23.76
2022-08-10T15:51:18.140Z,23.83
2022-08-10T15:52:39.643Z,23.81